createdAt,value
2018-10-12T00:00:56.399Z,19.50
2018-10-12T00:03:26.824Z,17.00
2018-10-12T00:05:57.869Z,18.07
2018-10-12T00:08:29.075Z,18.93
2018-10-12T00:10:59.804Z,16.97
2018-10-12T00:13:30.791Z,22.80
2018-10-12T00:16:01.448Z,18.60
2018-10-12T00:18:32.217Z,19.40
2018-10-12T00:21:03.051Z,18.10
2018-10-12T00:23:33.585Z,20.30
2018-10-12T00:26:04.748Z,18.67
2018-10-12T00:28:35.672Z,19.33
2018-10-12T00:31:06.401Z,20.20
2018-10-12T00:33:37.011Z,18.60
2018-10-12T00:36:08.130Z,18.03
2018-10-12T00:38:39.090Z,19.47
2018-10-12T00:41:09.740Z,22.53
2018-10-12T00:43:40.580Z,18.53
2018-10-12T00:46:11.420Z,20.73
2018-10-12T00:48:42.233Z,18.90
2018-10-12T00:51:12.972Z,17.97
2018-10-12T00:53:43.633Z,18.23
2018-10-12T00:56:14.427Z,19.00
2018-10-12T00:58:45.175Z,19.30
2018-10-12T01:01:17.727Z,17.77
2018-10-12T01:03:48.936Z,18.47
2018-10-12T01:06:19.808Z,18.80
2018-10-12T01:08:51.071Z,21.33
2018-10-12T01:11:22.144Z,23.10
2018-10-12T01:13:53.393Z,20.50
2018-10-12T01:16:24.425Z,18.20
2018-10-12T01:18:55.232Z,19.83
2018-10-12T01:21:26.378Z,19.47
2018-10-12T01:23:57.429Z,18.67
2018-10-12T01:26:28.414Z,19.37
2018-10-12T01:28:59.394Z,18.43
2018-10-12T01:31:30.143Z,19.40
2018-10-12T01:34:00.959Z,19.60
2018-10-12T01:36:31.715Z,19.90
2018-10-12T01:39:02.321Z,18.80
2018-10-12T01:41:33.088Z,18.37
2018-10-12T01:44:03.891Z,18.10
2018-10-12T01:46:34.723Z,18.20
2018-10-12T01:49:05.564Z,17.67
2018-10-12T01:51:36.612Z,19.07
2018-10-12T01:54:07.538Z,19.53
2018-10-12T01:56:38.504Z,19.93
2018-10-12T01:59:09.107Z,18.23
2018-10-12T02:01:39.710Z,17.37
2018-10-12T02:04:10.287Z,17.57
2018-10-12T02:06:40.944Z,18.03
2018-10-12T02:09:11.531Z,17.73
2018-10-12T02:11:42.165Z,17.93
2018-10-12T02:14:12.747Z,19.23
2018-10-12T02:16:43.580Z,16.43
2018-10-12T02:19:14.852Z,18.70
2018-10-12T02:21:46.250Z,18.50
2018-10-12T02:24:18.718Z,19.57
2018-10-12T02:26:49.667Z,17.47
2018-10-12T02:29:21.734Z,17.37
2018-10-12T02:31:53.986Z,18.13
2018-10-12T02:34:25.515Z,17.80
2018-10-12T02:36:56.829Z,18.03
2018-10-12T02:39:27.547Z,17.17
2018-10-12T02:41:58.252Z,17.00
2018-10-12T02:44:28.647Z,16.90
2018-10-12T02:46:59.667Z,17.00
2018-10-12T02:49:30.416Z,19.00
2018-10-12T02:52:01.268Z,18.00
2018-10-12T02:54:32.311Z,19.03
2018-10-12T02:57:03.214Z,17.40
2018-10-12T02:59:33.992Z,16.20
2018-10-12T03:02:08.003Z,16.23
2018-10-12T03:04:38.736Z,17.87
2018-10-12T03:07:09.450Z,16.07
2018-10-12T03:09:40.195Z,18.17
2018-10-12T03:12:11.035Z,16.27
2018-10-12T03:14:42.692Z,17.00
2018-10-12T03:17:14.055Z,16.30
2018-10-12T03:19:47.388Z,15.70
2018-10-12T03:22:20.139Z,17.00
2018-10-12T03:24:51.056Z,17.30
2018-10-12T03:27:21.923Z,16.80
2018-10-12T03:29:53.399Z,17.07
2018-10-12T03:32:24.173Z,16.77
2018-10-12T03:34:55.079Z,16.23
2018-10-12T03:37:26.093Z,15.20
2018-10-12T03:39:56.768Z,15.97
2018-10-12T03:42:28.104Z,16.90
2018-10-12T03:44:59.239Z,18.37
2018-10-12T03:47:31.735Z,14.90
2018-10-12T03:50:02.999Z,15.93
2018-10-12T03:52:33.946Z,18.23
2018-10-12T03:55:04.904Z,18.40
2018-10-12T03:57:35.908Z,16.33
2018-10-12T04:00:06.818Z,16.33
2018-10-12T04:02:37.870Z,16.10
2018-10-12T04:05:08.795Z,16.70
2018-10-12T04:07:39.439Z,16.70
2018-10-12T04:10:10.294Z,18.80
2018-10-12T04:12:41.325Z,15.33
2018-10-12T04:15:12.171Z,17.70
2018-10-12T04:17:46.167Z,16.60
2018-10-12T04:20:17.311Z,17.37
2018-10-12T04:22:48.623Z,15.47
2018-10-12T04:25:21.731Z,17.73
2018-10-12T04:27:54.442Z,21.80
2018-10-12T04:30:25.360Z,17.20
2018-10-12T04:32:56.211Z,17.30
2018-10-12T04:35:29.059Z,17.30
2018-10-12T04:37:59.897Z,16.80
2018-10-12T04:41:14.996Z,16.90
2018-10-12T04:43:46.882Z,15.93
2018-10-12T04:46:22.471Z,17.83
2018-10-12T04:48:53.816Z,17.13
2018-10-12T04:51:36.467Z,17.20
2018-10-12T04:54:08.010Z,21.90
2018-10-12T04:56:39.021Z,19.43
2018-10-12T04:59:09.650Z,20.10
2018-10-12T05:01:40.304Z,19.10
2018-10-12T05:04:11.070Z,21.27
2018-10-12T05:06:41.478Z,18.63
2018-10-12T05:09:13.372Z,17.47
2018-10-12T05:11:44.635Z,16.13
2018-10-12T05:14:15.247Z,20.97
2018-10-12T05:16:48.166Z,17.93
2018-10-12T05:19:22.383Z,16.60
2018-10-12T05:21:53.188Z,17.60
2018-10-12T05:24:24.744Z,18.17
2018-10-12T05:26:57.116Z,17.00
2018-10-12T05:29:27.765Z,20.30
2018-10-12T05:31:58.562Z,17.23
2018-10-12T05:34:29.167Z,16.90
2018-10-12T05:36:59.760Z,19.60
2018-10-12T05:39:30.444Z,16.90
2018-10-12T05:42:01.781Z,16.40
2018-10-12T05:44:34.550Z,16.80
2018-10-12T05:47:05.347Z,17.93
2018-10-12T05:49:53.602Z,17.67
2018-10-12T05:52:30.256Z,19.17
2018-10-12T05:55:02.740Z,17.07
2018-10-12T05:57:40.112Z,18.40
2018-10-12T06:00:11.719Z,18.50
2018-10-12T06:02:42.379Z,16.70
2018-10-12T06:05:12.961Z,17.97
2018-10-12T06:07:43.618Z,18.90
2018-10-12T06:10:14.344Z,17.40
2018-10-12T06:12:45.328Z,16.03
2018-10-12T06:15:16.206Z,15.00
2018-10-12T06:17:50.813Z,16.50
2018-10-12T06:20:26.071Z,19.93
2018-10-12T06:22:58.801Z,17.20
2018-10-12T06:25:29.693Z,18.70
2018-10-12T06:28:00.784Z,16.60
2018-10-12T06:30:36.451Z,18.93
2018-10-12T06:33:07.436Z,15.30
2018-10-12T06:35:42.461Z,15.73
2018-10-12T06:38:13.070Z,19.93
2018-10-12T06:40:45.506Z,15.70
2018-10-12T06:43:16.299Z,16.43
2018-10-12T06:45:47.562Z,15.63
2018-10-12T06:48:18.323Z,15.50
2018-10-12T06:50:48.955Z,17.77
2018-10-12T06:53:20.875Z,17.17
2018-10-12T06:55:51.540Z,15.10
2018-10-12T06:58:22.283Z,16.63
2018-10-12T07:00:54.807Z,15.57
2018-10-12T07:03:26.274Z,16.80
2018-10-12T07:05:57.032Z,15.83
2018-10-12T07:08:29.255Z,15.70
2018-10-12T07:11:03.965Z,17.40
2018-10-12T07:13:34.837Z,14.87
2018-10-12T07:16:05.658Z,14.03
2018-10-12T07:18:36.607Z,16.27
2018-10-12T07:21:07.432Z,15.20
2018-10-12T07:23:38.280Z,16.97
2018-10-12T07:26:09.112Z,17.37
2018-10-12T07:28:39.926Z,15.10
2018-10-12T07:31:12.062Z,17.70
2018-10-12T07:33:42.794Z,21.60
2018-10-12T07:36:13.424Z,14.33
2018-10-12T07:38:44.140Z,18.57
2018-10-12T07:41:15.170Z,15.07
2018-10-12T07:43:45.873Z,17.30
2018-10-12T07:46:17.525Z,16.67
2018-10-12T07:48:48.759Z,17.00
2018-10-12T07:51:20.035Z,14.83
2018-10-12T07:53:50.705Z,13.97
2018-10-12T07:56:21.740Z,13.10
2018-10-12T07:58:52.456Z,11.23
2018-10-12T08:01:23.850Z,12.53
2018-10-12T08:03:55.472Z,13.07
2018-10-12T08:06:26.882Z,11.87
2018-10-12T08:09:01.236Z,14.40
2018-10-12T08:11:32.307Z,12.43
2018-10-12T08:14:03.267Z,13.77
2018-10-12T08:16:34.114Z,12.40
2018-10-12T08:19:05.036Z,11.87
2018-10-12T08:21:35.692Z,11.80
2018-10-12T08:24:06.748Z,12.90
2018-10-12T08:26:38.001Z,12.63
2018-10-12T08:29:12.306Z,13.37
2018-10-12T08:31:43.406Z,10.77
2018-10-12T08:34:14.568Z,12.00
2018-10-12T08:36:45.405Z,12.50
2018-10-12T08:39:16.184Z,12.43
2018-10-12T08:41:46.997Z,11.07
2018-10-12T08:44:17.929Z,9.80
2018-10-12T08:46:49.083Z,9.47
2018-10-12T08:49:19.467Z,8.03
2018-10-12T08:51:50.477Z,8.40
2018-10-12T08:54:23.154Z,10.23
2018-10-12T08:56:58.230Z,7.50
2018-10-12T08:59:29.294Z,8.50
2018-10-12T09:02:02.013Z,6.80
2018-10-12T09:04:32.700Z,7.43
2018-10-12T09:07:04.040Z,5.67
2018-10-12T09:09:34.652Z,5.93
2018-10-12T09:12:06.835Z,5.73
2018-10-12T09:14:39.595Z,6.07
2018-10-12T09:17:10.493Z,6.37
2018-10-12T09:19:41.144Z,8.00
2018-10-12T09:22:11.760Z,5.47
2018-10-12T09:24:42.560Z,7.73
2018-10-12T09:27:13.183Z,5.77
2018-10-12T09:29:43.936Z,5.93
2018-10-12T09:32:15.988Z,6.53
2018-10-12T09:34:47.567Z,5.07
2018-10-12T09:37:19.094Z,5.00
2018-10-12T09:39:50.342Z,6.20
2018-10-12T09:42:24.660Z,6.13
2018-10-12T09:44:55.606Z,5.37
2018-10-12T09:47:28.353Z,5.73
2018-10-12T09:49:59.097Z,4.93
2018-10-12T09:52:30.136Z,6.10
2018-10-12T09:55:01.691Z,5.17
2018-10-12T09:57:37.755Z,5.63
2018-10-12T10:00:12.734Z,5.53
2018-10-12T10:02:48.576Z,5.00
2018-10-12T10:05:19.378Z,5.27
2018-10-12T10:07:50.210Z,5.00
2018-10-12T10:10:21.008Z,5.30
2018-10-12T10:12:51.538Z,5.77
2018-10-12T10:15:22.257Z,5.30
2018-10-12T10:17:57.409Z,4.73
2018-10-12T10:20:28.324Z,5.27
2018-10-12T10:22:59.440Z,5.63
2018-10-12T10:25:30.246Z,4.90
2018-10-12T10:28:00.780Z,4.53
2018-10-12T10:30:31.399Z,6.03
2018-10-12T10:33:02.134Z,4.60
2018-10-12T10:35:32.861Z,5.73
2018-10-12T10:38:05.184Z,7.47
2018-10-12T10:40:35.995Z,6.07
2018-10-12T10:43:06.907Z,13.50
2018-10-12T10:45:37.955Z,4.80
2018-10-12T10:48:08.644Z,4.13
2018-10-12T10:50:39.308Z,4.73
2018-10-12T10:53:10.418Z,5.30
2018-10-12T10:55:41.087Z,3.93
2018-10-12T10:58:13.290Z,4.27
2018-10-12T11:00:44.024Z,8.33
2018-10-12T11:03:14.829Z,5.30
2018-10-12T11:05:45.316Z,4.30
2018-10-12T11:08:16.087Z,7.70
2018-10-12T11:10:46.939Z,5.73
2018-10-12T11:13:17.335Z,4.90
2018-10-12T11:15:48.062Z,6.23
2018-10-12T11:18:19.678Z,5.80
2018-10-12T11:20:51.611Z,5.00
2018-10-12T11:23:22.521Z,6.73
2018-10-12T11:25:53.948Z,4.50
2018-10-12T11:28:27.984Z,4.33
2018-10-12T11:30:59.055Z,5.10
2018-10-12T11:33:34.419Z,7.20
2018-10-12T11:36:05.324Z,4.63
2018-10-12T11:38:36.270Z,4.80
2018-10-12T11:41:08.439Z,4.30
2018-10-12T11:43:39.693Z,5.47
2018-10-12T11:46:10.592Z,5.40
2018-10-12T11:48:41.167Z,4.03
2018-10-12T11:51:12.075Z,5.50
2018-10-12T11:53:42.903Z,5.40
2018-10-12T11:56:13.540Z,4.70
2018-10-12T11:58:43.906Z,8.60
2018-10-12T12:01:14.583Z,5.10
2018-10-12T12:03:45.344Z,5.20
2018-10-12T12:06:16.051Z,4.17
2018-10-12T12:08:46.643Z,4.03
2018-10-12T12:11:17.626Z,4.40
2018-10-12T12:13:48.412Z,4.23
2018-10-12T12:16:19.543Z,5.80
2018-10-12T12:18:50.259Z,6.77
2018-10-12T12:21:21.600Z,6.10
2018-10-12T12:23:52.376Z,4.30
2018-10-12T12:26:23.156Z,5.13
2018-10-12T12:28:54.005Z,5.40
2018-10-12T12:31:24.643Z,3.73
2018-10-12T12:33:57.035Z,4.60
2018-10-12T12:36:29.410Z,4.73
2018-10-12T12:39:01.952Z,4.57
2018-10-12T12:41:33.272Z,3.20
2018-10-12T12:44:04.750Z,4.03
2018-10-12T12:46:36.160Z,5.83
2018-10-12T12:49:07.563Z,4.33
2018-10-12T12:51:38.088Z,4.87
2018-10-12T12:54:10.618Z,3.90
2018-10-12T12:56:41.416Z,6.43
2018-10-12T12:59:12.093Z,3.87
2018-10-12T13:01:42.964Z,5.07
2018-10-12T13:04:13.885Z,5.93
2018-10-12T13:06:44.479Z,4.40
2018-10-12T13:09:15.519Z,5.87
2018-10-12T13:11:46.095Z,3.33
2018-10-12T13:14:16.839Z,3.40
2018-10-12T13:16:47.461Z,5.40
2018-10-12T13:19:18.319Z,4.17
2018-10-12T13:21:49.208Z,4.80
2018-10-12T13:24:19.956Z,4.67
2018-10-12T13:26:50.800Z,5.10
2018-10-12T13:29:21.579Z,5.93
2018-10-12T13:31:52.380Z,3.80
2018-10-12T13:34:23.523Z,5.00
2018-10-12T13:36:54.215Z,5.00
2018-10-12T13:39:24.838Z,4.20
2018-10-12T13:41:56.089Z,4.30
2018-10-12T13:44:31.250Z,4.13
2018-10-12T13:47:02.092Z,5.17
2018-10-12T13:49:33.132Z,3.60
2018-10-12T13:52:03.842Z,4.30
2018-10-12T13:54:34.508Z,3.93
2018-10-12T13:57:05.793Z,3.50
2018-10-12T13:59:36.736Z,15.20
2018-10-12T14:02:08.899Z,3.63
2018-10-12T14:04:39.692Z,3.30
2018-10-12T14:07:13.003Z,4.73
2018-10-12T14:09:43.996Z,3.30
2018-10-12T14:12:14.638Z,3.10
2018-10-12T14:14:45.287Z,3.27
2018-10-12T14:17:19.380Z,3.20
2018-10-12T14:19:50.131Z,3.30
2018-10-12T14:22:24.987Z,4.07
2018-10-12T14:24:56.745Z,5.43
2018-10-12T14:27:27.552Z,3.00
2018-10-12T14:29:58.387Z,5.00
2018-10-12T14:32:28.785Z,3.20
2018-10-12T14:34:59.584Z,2.97
2018-10-12T14:37:30.163Z,2.47
2018-10-12T14:40:01.016Z,5.80
2018-10-12T14:42:31.623Z,3.20
2018-10-12T14:45:02.385Z,3.30
2018-10-12T14:47:33.530Z,3.20
2018-10-12T14:50:04.488Z,3.23
2018-10-12T14:52:35.055Z,3.37
2018-10-12T14:55:05.732Z,4.93
2018-10-12T14:57:36.686Z,4.23
2018-10-12T15:00:09.328Z,3.77
2018-10-12T15:02:39.908Z,3.10
2018-10-12T15:05:10.505Z,7.80
2018-10-12T15:07:41.100Z,5.50
2018-10-12T15:10:11.656Z,5.73
2018-10-12T15:12:42.248Z,6.00
2018-10-12T15:15:19.053Z,5.10
2018-10-12T15:17:50.814Z,3.37
2018-10-12T15:20:21.896Z,5.93
2018-10-12T15:22:52.559Z,4.63
2018-10-12T15:25:23.249Z,5.03
2018-10-12T15:27:54.503Z,2.90
2018-10-12T15:30:25.077Z,3.40
2018-10-12T15:32:55.697Z,3.97
2018-10-12T15:35:26.580Z,2.97
2018-10-12T15:37:57.455Z,3.33
2018-10-12T15:40:28.104Z,4.17
2018-10-12T15:42:59.144Z,5.03
2018-10-12T15:45:30.133Z,2.90
2018-10-12T15:48:00.727Z,3.67
2018-10-12T15:50:31.371Z,4.93
2018-10-12T15:53:02.349Z,3.30
2018-10-12T15:55:32.993Z,4.10
2018-10-12T15:58:03.636Z,3.10
2018-10-12T16:00:34.223Z,5.60
2018-10-12T16:03:05.214Z,2.90
2018-10-12T16:05:35.839Z,4.30
2018-10-12T16:08:06.578Z,6.93
2018-10-12T16:10:37.175Z,5.50
2018-10-12T16:13:07.788Z,5.37
2018-10-12T16:15:38.392Z,4.67
2018-10-12T16:18:09.007Z,4.57
2018-10-12T16:20:39.857Z,3.23
2018-10-12T16:23:10.478Z,5.77
2018-10-12T16:26:00.768Z,5.23
2018-10-12T16:28:31.363Z,6.60
2018-10-12T16:31:02.065Z,6.27
2018-10-12T16:33:32.660Z,4.87
2018-10-12T16:36:03.292Z,3.60
2018-10-12T16:38:34.093Z,5.63
2018-10-12T16:41:04.731Z,5.40
2018-10-12T16:43:35.517Z,5.57
2018-10-12T16:46:06.376Z,5.80
2018-10-12T16:48:36.996Z,7.33
2018-10-12T16:51:07.975Z,4.90
2018-10-12T16:53:38.617Z,8.13
2018-10-12T16:56:09.248Z,8.90
2018-10-12T16:58:39.956Z,8.30
2018-10-12T17:01:10.608Z,7.93
2018-10-12T17:03:41.207Z,6.43
2018-10-12T17:06:11.788Z,5.87
2018-10-12T17:08:42.475Z,9.67
2018-10-12T17:11:13.104Z,20.80
2018-10-12T17:13:43.755Z,7.53
2018-10-12T17:16:14.364Z,6.83
2018-10-12T17:18:44.985Z,9.20
2018-10-12T17:21:15.770Z,14.20
2018-10-12T17:23:46.363Z,9.63
2018-10-12T17:26:17.241Z,9.33
2018-10-12T17:28:48.097Z,10.00
2018-10-12T17:31:18.753Z,8.13
2018-10-12T17:33:49.348Z,10.40
2018-10-12T17:36:20.005Z,7.30
2018-10-12T17:38:50.618Z,13.60
2018-10-12T17:41:21.683Z,6.60
2018-10-12T17:43:52.259Z,6.73
2018-10-12T17:46:22.842Z,9.30
2018-10-12T17:48:53.432Z,8.10
2018-10-12T17:51:24.040Z,6.50
2018-10-12T17:53:54.688Z,11.20
2018-10-12T17:56:25.491Z,6.10
2018-10-12T17:58:56.363Z,8.10
2018-10-12T18:01:26.984Z,7.33
2018-10-12T18:03:57.606Z,7.40
2018-10-12T18:06:28.571Z,6.03
2018-10-12T18:08:59.210Z,8.57
2018-10-12T18:11:29.994Z,8.73
2018-10-12T18:14:04.009Z,6.30
2018-10-12T18:16:34.640Z,8.70
2018-10-12T18:19:06.124Z,8.30
2018-10-12T18:21:36.734Z,8.60
2018-10-12T18:24:07.920Z,7.57
2018-10-12T18:26:38.555Z,7.23
2018-10-12T18:29:09.452Z,7.17
2018-10-12T18:31:40.284Z,10.63
2018-10-12T18:34:11.332Z,6.53
2018-10-12T18:36:41.988Z,9.00
2018-10-12T18:39:12.811Z,8.50
2018-10-12T18:41:44.133Z,6.87
2018-10-12T18:44:14.739Z,9.20
2018-10-12T18:46:45.443Z,12.27
2018-10-12T18:49:16.127Z,9.87
2018-10-12T18:51:47.364Z,8.57
2018-10-12T18:54:17.937Z,7.37
2018-10-12T18:56:49.065Z,15.07
2018-10-12T18:59:19.681Z,8.43
2018-10-12T19:01:50.299Z,7.60
2018-10-12T19:04:20.903Z,7.90
2018-10-12T19:06:52.091Z,9.10
2018-10-12T19:09:22.708Z,11.20
2018-10-12T19:11:53.336Z,9.20
2018-10-12T19:14:24.046Z,10.13
2018-10-12T19:16:54.678Z,12.67
2018-10-12T19:19:25.344Z,9.30
2018-10-12T19:21:56.140Z,10.23
2018-10-12T19:24:26.813Z,9.67
2018-10-12T19:26:57.464Z,8.63
2018-10-12T19:29:28.181Z,9.70
2018-10-12T19:31:58.957Z,7.90
2018-10-12T19:34:29.735Z,7.73
2018-10-12T19:37:00.382Z,11.10
2018-10-12T19:39:31.042Z,11.60
2018-10-12T19:42:01.633Z,10.10
2018-10-12T19:44:32.298Z,10.93
2018-10-12T19:47:02.938Z,11.00
2018-10-12T19:49:33.986Z,11.67
2018-10-12T19:52:04.298Z,10.20
2018-10-12T19:54:34.916Z,14.07
2018-10-12T19:57:05.630Z,10.13
2018-10-12T19:59:36.234Z,11.47
2018-10-12T20:02:06.902Z,12.10
2018-10-12T20:04:37.509Z,10.30
2018-10-12T20:07:08.118Z,11.33
2018-10-12T20:09:38.744Z,12.07
2018-10-12T20:12:09.433Z,8.80
2018-10-12T20:14:40.028Z,13.47
2018-10-12T20:17:10.833Z,11.03
2018-10-12T20:19:41.427Z,10.77
2018-10-12T20:22:12.468Z,10.00
2018-10-12T20:24:43.104Z,12.87
2018-10-12T20:27:13.726Z,13.03
2018-10-12T20:29:44.327Z,16.00
2018-10-12T20:32:15.174Z,9.33
2018-10-12T20:34:45.791Z,10.87
2018-10-12T20:37:16.615Z,11.00
2018-10-12T20:39:47.296Z,13.00
2018-10-12T20:42:17.939Z,13.03
2018-10-12T20:44:48.784Z,11.23
2018-10-12T20:47:19.395Z,9.27
2018-10-12T20:49:50.058Z,11.27
2018-10-12T20:52:20.781Z,9.53
2018-10-12T20:54:51.464Z,11.83
2018-10-12T20:57:22.056Z,12.17
2018-10-12T20:59:52.736Z,11.67
2018-10-12T21:02:23.354Z,10.57
2018-10-12T21:04:54.455Z,10.30
2018-10-12T21:07:25.119Z,9.50
2018-10-12T21:09:55.785Z,11.20
2018-10-12T21:12:26.377Z,9.70
2018-10-12T21:14:57.035Z,9.60
2018-10-12T21:17:27.689Z,11.40
2018-10-12T21:19:58.348Z,12.90
2018-10-12T21:22:29.063Z,11.80
2018-10-12T21:24:59.653Z,14.03
2018-10-12T21:27:30.684Z,12.93
2018-10-12T21:30:01.401Z,9.80
2018-10-12T21:32:32.004Z,12.10
2018-10-12T21:35:02.618Z,11.93
2018-10-12T21:37:33.287Z,11.00
2018-10-12T21:40:03.888Z,12.77
2018-10-12T21:42:34.543Z,8.70
2018-10-12T21:45:05.165Z,9.07
2018-10-12T21:47:36.023Z,9.30
2018-10-12T21:50:07.303Z,11.60
2018-10-12T21:52:37.956Z,10.60
2018-10-12T21:55:08.682Z,9.00
2018-10-12T21:57:39.299Z,11.00
2018-10-12T22:00:10.621Z,9.93
2018-10-12T22:02:41.280Z,10.90
2018-10-12T22:05:12.007Z,12.23
2018-10-12T22:07:42.647Z,9.50
2018-10-12T22:10:13.271Z,9.23
2018-10-12T22:12:43.884Z,9.80
2018-10-12T22:15:14.730Z,11.30
2018-10-12T22:17:45.365Z,9.90
2018-10-12T22:20:16.016Z,9.17
2018-10-12T22:22:46.608Z,10.60
2018-10-12T22:25:17.198Z,15.67
2018-10-12T22:27:47.823Z,15.67
2018-10-12T22:30:18.448Z,10.03
2018-10-12T22:32:49.042Z,10.23
2018-10-12T22:35:19.698Z,10.03
2018-10-12T22:37:50.312Z,10.27
2018-10-12T22:40:21.183Z,12.33
2018-10-12T22:42:51.820Z,12.13
2018-10-12T22:45:22.736Z,11.10
2018-10-12T22:47:53.384Z,10.47
2018-10-12T22:50:24.017Z,11.57
2018-10-12T22:52:54.643Z,9.67
2018-10-12T22:55:25.239Z,9.57
2018-10-12T22:58:00.605Z,10.93
2018-10-12T23:00:32.721Z,11.40
2018-10-12T23:03:03.407Z,10.23
2018-10-12T23:05:33.988Z,10.37
2018-10-12T23:08:04.610Z,13.93
2018-10-12T23:10:34.941Z,10.20
2018-10-12T23:13:05.785Z,12.00
2018-10-12T23:15:38.105Z,9.30
2018-10-12T23:18:09.075Z,10.17
2018-10-12T23:20:39.626Z,9.80
2018-10-12T23:23:10.225Z,9.03
2018-10-12T23:25:40.809Z,11.60
2018-10-12T23:28:11.375Z,13.57
2018-10-12T23:30:41.973Z,11.30
2018-10-12T23:33:29.253Z,16.57
2018-10-12T23:35:59.860Z,11.10
2018-10-12T23:38:30.400Z,9.90
2018-10-12T23:41:01.004Z,9.90
2018-10-12T23:43:31.597Z,12.70
2018-10-12T23:46:02.227Z,11.80
2018-10-12T23:48:32.841Z,10.43
2018-10-12T23:51:03.461Z,9.60
2018-10-12T23:53:34.033Z,10.57
2018-10-12T23:56:04.773Z,10.80
2018-10-12T23:58:35.502Z,10.27
